sensor_id;sensor_type;location;lat;lon;timestamp;pressure;altitude;pressure_sealevel;temperature;humidity
31044;BME280;17710;52.520;13.352;2023-02-10T00:00:12;102846.66;;;6.56;44.29
31044;BME280;17710;52.520;13.352;2023-02-10T00:02:39;102851.41;;;6.24;44.78
31044;BME280;17710;52.520;13.352;2023-02-10T00:05:06;102849.66;;;6.23;44.62
31044;BME280;17710;52.520;13.352;2023-02-10T00:07:33;102842.31;;;6.02;45.24
31044;BME280;17710;52.520;13.352;2023-02-10T00:09:59;102854.91;;;5.73;46.39
31044;BME280;17710;52.520;13.352;2023-02-10T00:12:25;102852.50;;;5.85;46.00
31044;BME280;17710;52.520;13.352;2023-02-10T00:14:52;102848.91;;;5.80;45.71
31044;BME280;17710;52.520;13.352;2023-02-10T00:17:19;102848.28;;;5.93;45.63
31044;BME280;17710;52.520;13.352;2023-02-10T00:19:46;102850.75;;;5.86;45.83
31044;BME280;17710;52.520;13.352;2023-02-10T00:22:12;102843.69;;;5.82;45.63
31044;BME280;17710;52.520;13.352;2023-02-10T00:24:39;102847.34;;;5.88;46.05
31044;BME280;17710;52.520;13.352;2023-02-10T00:27:05;102851.59;;;5.83;45.73
31044;BME280;17710;52.520;13.352;2023-02-10T00:29:31;102852.72;;;5.97;45.23
31044;BME280;17710;52.520;13.352;2023-02-10T00:31:58;102846.84;;;6.12;45.20
31044;BME280;17710;52.520;13.352;2023-02-10T00:34:25;102845.13;;;6.13;45.58
31044;BME280;17710;52.520;13.352;2023-02-10T00:36:53;102845.03;;;6.07;45.30
31044;BME280;17710;52.520;13.352;2023-02-10T00:39:19;102850.22;;;6.05;45.92
31044;BME280;17710;52.520;13.352;2023-02-10T00:41:46;102854.13;;;6.28;45.06
31044;BME280;17710;52.520;13.352;2023-02-10T00:44:12;102853.63;;;5.96;45.50
31044;BME280;17710;52.520;13.352;2023-02-10T00:46:38;102849.59;;;6.20;45.57
31044;BME280;17710;52.520;13.352;2023-02-10T00:49:05;102861.69;;;6.09;45.53
31044;BME280;17710;52.520;13.352;2023-02-10T00:51:33;102867.16;;;6.22;45.58
31044;BME280;17710;52.520;13.352;2023-02-10T00:54:01;102866.84;;;6.04;46.39
31044;BME280;17710;52.520;13.352;2023-02-10T00:56:28;102870.59;;;6.20;45.86
31044;BME280;17710;52.520;13.352;2023-02-10T00:58:54;102868.94;;;6.25;45.94
31044;BME280;17710;52.520;13.352;2023-02-10T01:01:21;102873.16;;;6.15;46.19
31044;BME280;17710;52.520;13.352;2023-02-10T01:03:47;102887.75;;;5.99;46.90
31044;BME280;17710;52.520;13.352;2023-02-10T01:06:14;102885.59;;;5.77;47.41
31044;BME280;17710;52.520;13.352;2023-02-10T01:08:42;102880.81;;;6.02;46.63
31044;BME280;17710;52.520;13.352;2023-02-10T01:11:10;102889.44;;;5.49;47.93
31044;BME280;17710;52.520;13.352;2023-02-10T01:13:38;102885.47;;;5.71;47.68
31044;BME280;17710;52.520;13.352;2023-02-10T01:16:06;102882.84;;;5.71;48.02
31044;BME280;17710;52.520;13.352;2023-02-10T01:18:34;102886.84;;;5.51;48.67
31044;BME280;17710;52.520;13.352;2023-02-10T01:21:06;102880.84;;;5.56;48.70
31044;BME280;17710;52.520;13.352;2023-02-10T01:23:32;102887.09;;;5.63;48.64
31044;BME280;17710;52.520;13.352;2023-02-10T01:26:00;102881.31;;;5.82;48.34
31044;BME280;17710;52.520;13.352;2023-02-10T01:28:27;102893.69;;;5.43;49.62
31044;BME280;17710;52.520;13.352;2023-02-10T01:30:53;102884.19;;;5.49;49.23
31044;BME280;17710;52.520;13.352;2023-02-10T01:33:19;102884.22;;;5.51;49.41
31044;BME280;17710;52.520;13.352;2023-02-10T01:35:46;102888.72;;;5.58;48.90
31044;BME280;17710;52.520;13.352;2023-02-10T01:38:12;102882.84;;;5.71;48.98
31044;BME280;17710;52.520;13.352;2023-02-10T01:40:39;102887.13;;;5.66;49.20
31044;BME280;17710;52.520;13.352;2023-02-10T01:43:12;102884.66;;;5.74;48.93
31044;BME280;17710;52.520;13.352;2023-02-10T01:45:40;102884.44;;;5.61;49.12
31044;BME280;17710;52.520;13.352;2023-02-10T01:48:08;102877.72;;;5.77;48.71
31044;BME280;17710;52.520;13.352;2023-02-10T01:50:39;102880.25;;;5.73;48.73
31044;BME280;17710;52.520;13.352;2023-02-10T01:53:07;102873.34;;;5.76;48.98
31044;BME280;17710;52.520;13.352;2023-02-10T01:55:34;102866.25;;;5.71;49.25
31044;BME280;17710;52.520;13.352;2023-02-10T01:58:04;102855.69;;;5.68;49.52
31044;BME280;17710;52.520;13.352;2023-02-10T02:00:32;102861.50;;;5.51;50.10
31044;BME280;17710;52.520;13.352;2023-02-10T02:03:00;102857.38;;;5.64;49.52
31044;BME280;17710;52.520;13.352;2023-02-10T02:05:31;102866.13;;;5.66;49.64
31044;BME280;17710;52.520;13.352;2023-02-10T02:08:02;102880.47;;;5.38;50.55
31044;BME280;17710;52.520;13.352;2023-02-10T02:10:53;102876.09;;;5.39;51.07
31044;BME280;17710;52.520;13.352;2023-02-10T02:13:29;102872.63;;;5.40;50.43
31044;BME280;17710;52.520;13.352;2023-02-10T02:16:05;102885.19;;;5.56;50.26
31044;BME280;17710;52.520;13.352;2023-02-10T02:18:41;102881.72;;;5.58;50.37
31044;BME280;17710;52.520;13.352;2023-02-10T02:21:22;102891.50;;;5.67;50.02
31044;BME280;17710;52.520;13.352;2023-02-10T02:24:06;102889.72;;;5.65;50.09
31044;BME280;17710;52.520;13.352;2023-02-10T02:26:46;102892.38;;;5.66;49.66
31044;BME280;17710;52.520;13.352;2023-02-10T02:29:40;102898.47;;;5.65;50.24
31044;BME280;17710;52.520;13.352;2023-02-10T02:32:14;102898.28;;;5.54;50.25
31044;BME280;17710;52.520;13.352;2023-02-10T02:34:48;102896.03;;;5.74;49.49
31044;BME280;17710;52.520;13.352;2023-02-10T02:37:18;102900.34;;;5.71;49.90
31044;BME280;17710;52.520;13.352;2023-02-10T02:39:48;102897.56;;;5.63;49.86
31044;BME280;17710;52.520;13.352;2023-02-10T02:42:20;102896.13;;;5.80;49.66
31044;BME280;17710;52.520;13.352;2023-02-10T02:44:50;102892.88;;;5.90;49.63
31044;BME280;17710;52.520;13.352;2023-02-10T02:47:27;102890.91;;;5.82;49.23
31044;BME280;17710;52.520;13.352;2023-02-10T02:50:06;102896.22;;;5.85;49.42
31044;BME280;17710;52.520;13.352;2023-02-10T02:52:45;102896.25;;;5.86;49.37
31044;BME280;17710;52.520;13.352;2023-02-10T02:55:22;102882.31;;;5.87;49.44
31044;BME280;17710;52.520;13.352;2023-02-10T02:57:56;102895.06;;;5.69;49.88
31044;BME280;17710;52.520;13.352;2023-02-10T03:00:27;102881.09;;;5.72;49.57
31044;BME280;17710;52.520;13.352;2023-02-10T03:02:58;102889.72;;;5.65;49.76
31044;BME280;17710;52.520;13.352;2023-02-10T03:05:28;102883.84;;;5.78;49.81
31044;BME280;17710;52.520;13.352;2023-02-10T03:07:55;102891.59;;;5.70;49.72
31044;BME280;17710;52.520;13.352;2023-02-10T03:10:22;102895.88;;;5.67;49.73
31044;BME280;17710;52.520;13.352;2023-02-10T03:12:48;102892.69;;;5.84;49.18
31044;BME280;17710;52.520;13.352;2023-02-10T03:15:16;102895.81;;;5.62;50.05
31044;BME280;17710;52.520;13.352;2023-02-10T03:17:43;102896.88;;;5.73;49.80
31044;BME280;17710;52.520;13.352;2023-02-10T03:20:11;102910.06;;;5.76;49.93
31044;BME280;17710;52.520;13.352;2023-02-10T03:22:37;102905.22;;;5.52;50.63
31044;BME280;17710;52.520;13.352;2023-02-10T03:25:05;102902.97;;;5.72;50.10
31044;BME280;17710;52.520;13.352;2023-02-10T03:27:31;102909.88;;;5.67;50.40
31044;BME280;17710;52.520;13.352;2023-02-10T03:29:58;102900.41;;;5.75;50.56
31044;BME280;17710;52.520;13.352;2023-02-10T03:32:24;102908.19;;;5.69;50.83
31044;BME280;17710;52.520;13.352;2023-02-10T03:34:51;102903.84;;;5.73;50.51
31044;BME280;17710;52.520;13.352;2023-02-10T03:37:18;102909.06;;;5.70;51.27
31044;BME280;17710;52.520;13.352;2023-02-10T03:39:45;102914.09;;;5.59;51.46
31044;BME280;17710;52.520;13.352;2023-02-10T03:42:12;102905.44;;;5.63;51.70
31044;BME280;17710;52.520;13.352;2023-02-10T03:44:39;102906.03;;;5.93;51.03
31044;BME280;17710;52.520;13.352;2023-02-10T03:47:05;102919.72;;;5.79;51.07
31044;BME280;17710;52.520;13.352;2023-02-10T03:49:34;102919.97;;;5.89;51.29
31044;BME280;17710;52.520;13.352;2023-02-10T03:52:00;102919.03;;;5.87;51.63
31044;BME280;17710;52.520;13.352;2023-02-10T03:54:28;102926.59;;;5.72;51.40
31044;BME280;17710;52.520;13.352;2023-02-10T03:56:56;102927.50;;;5.74;52.12
31044;BME280;17710;52.520;13.352;2023-02-10T03:59:23;102936.56;;;5.88;52.00
31044;BME280;17710;52.520;13.352;2023-02-10T04:01:50;102930.50;;;5.92;51.82
31044;BME280;17710;52.520;13.352;2023-02-10T04:04:17;102932.56;;;5.65;52.42
31044;BME280;17710;52.520;13.352;2023-02-10T04:06:43;102917.94;;;5.78;52.61
31044;BME280;17710;52.520;13.352;2023-02-10T04:09:09;102908.44;;;5.84;52.40
31044;BME280;17710;52.520;13.352;2023-02-10T04:11:37;102904.22;;;5.91;52.39
31044;BME280;17710;52.520;13.352;2023-02-10T04:14:04;102890.78;;;5.74;52.91
31044;BME280;17710;52.520;13.352;2023-02-10T04:16:30;102895.22;;;5.78;53.26
31044;BME280;17710;52.520;13.352;2023-02-10T04:18:58;102889.44;;;5.94;52.35
31044;BME280;17710;52.520;13.352;2023-02-10T04:21:25;102892.09;;;5.97;52.70
31044;BME280;17710;52.520;13.352;2023-02-10T04:23:52;102891.81;;;5.82;53.47
31044;BME280;17710;52.520;13.352;2023-02-10T04:26:19;102897.75;;;5.74;53.82
31044;BME280;17710;52.520;13.352;2023-02-10T04:28:46;102899.41;;;5.69;54.19
31044;BME280;17710;52.520;13.352;2023-02-10T04:31:13;102906.22;;;5.59;54.42
31044;BME280;17710;52.520;13.352;2023-02-10T04:33:40;102903.91;;;5.74;54.37
31044;BME280;17710;52.520;13.352;2023-02-10T04:36:07;102919.31;;;6.03;54.02
31044;BME280;17710;52.520;13.352;2023-02-10T04:38:34;102920.34;;;6.12;53.45
31044;BME280;17710;52.520;13.352;2023-02-10T04:41:00;102935.34;;;6.19;53.39
31044;BME280;17710;52.520;13.352;2023-02-10T04:43:28;102926.56;;;6.16;53.74
31044;BME280;17710;52.520;13.352;2023-02-10T04:45:55;102929.94;;;6.09;54.22
31044;BME280;17710;52.520;13.352;2023-02-10T04:48:22;102917.81;;;6.18;53.65
31044;BME280;17710;52.520;13.352;2023-02-10T04:50:48;102921.28;;;6.14;53.98
31044;BME280;17710;52.520;13.352;2023-02-10T04:53:15;102924.81;;;6.16;54.20
31044;BME280;17710;52.520;13.352;2023-02-10T04:55:42;102930.22;;;6.27;53.93
31044;BME280;17710;52.520;13.352;2023-02-10T04:58:08;102921.53;;;6.31;53.97
31044;BME280;17710;52.520;13.352;2023-02-10T05:00:34;102936.00;;;6.06;54.81
31044;BME280;17710;52.520;13.352;2023-02-10T05:03:02;102929.97;;;6.12;54.57
31044;BME280;17710;52.520;13.352;2023-02-10T05:05:29;102918.69;;;6.16;54.70
31044;BME280;17710;52.520;13.352;2023-02-10T05:07:55;102933.69;;;6.23;54.42
31044;BME280;17710;52.520;13.352;2023-02-10T05:10:22;102923.94;;;6.17;54.81
31044;BME280;17710;52.520;13.352;2023-02-10T05:12:48;102932.13;;;6.37;54.11
31044;BME280;17710;52.520;13.352;2023-02-10T05:15:18;102930.72;;;6.56;53.28
31044;BME280;17710;52.520;13.352;2023-02-10T05:17:44;102939.34;;;6.47;53.56
31044;BME280;17710;52.520;13.352;2023-02-10T05:20:12;102934.31;;;6.62;53.18
31044;BME280;17710;52.520;13.352;2023-02-10T05:22:39;102933.72;;;6.26;54.23
31044;BME280;17710;52.520;13.352;2023-02-10T05:25:07;102935.03;;;6.52;53.82
31044;BME280;17710;52.520;13.352;2023-02-10T05:27:35;102927.88;;;6.44;54.09
31044;BME280;17710;52.520;13.352;2023-02-10T05:30:02;102935.97;;;6.05;55.63
31044;BME280;17710;52.520;13.352;2023-02-10T05:32:29;102936.06;;;6.11;55.29
31044;BME280;17710;52.520;13.352;2023-02-10T05:34:55;102940.47;;;6.12;55.22
31044;BME280;17710;52.520;13.352;2023-02-10T05:37:23;102941.13;;;6.00;55.97
31044;BME280;17710;52.520;13.352;2023-02-10T05:39:49;102937.19;;;5.77;56.86
31044;BME280;17710;52.520;13.352;2023-02-10T05:42:16;102949.31;;;5.72;56.52
31044;BME280;17710;52.520;13.352;2023-02-10T05:44:42;102940.06;;;5.89;56.32
31044;BME280;17710;52.520;13.352;2023-02-10T05:47:09;102946.75;;;5.75;56.85
31044;BME280;17710;52.520;13.352;2023-02-10T05:49:35;102944.66;;;5.57;57.81
31044;BME280;17710;52.520;13.352;2023-02-10T05:52:02;102947.56;;;5.72;57.07
31044;BME280;17710;52.520;13.352;2023-02-10T05:54:30;102941.53;;;5.76;56.74
31044;BME280;17710;52.520;13.352;2023-02-10T05:56:56;102941.53;;;5.76;57.21
31044;BME280;17710;52.520;13.352;2023-02-10T05:59:23;102933.28;;;5.56;57.55
31044;BME280;17710;52.520;13.352;2023-02-10T06:01:49;102932.72;;;5.73;57.36
31044;BME280;17710;52.520;13.352;2023-02-10T06:04:16;102944.50;;;5.49;58.14
31044;BME280;17710;52.520;13.352;2023-02-10T06:06:42;102950.47;;;5.42;58.79
31044;BME280;17710;52.520;13.352;2023-02-10T06:09:09;102951.59;;;5.55;58.25
31044;BME280;17710;52.520;13.352;2023-02-10T06:11:37;102951.72;;;5.61;57.93
31044;BME280;17710;52.520;13.352;2023-02-10T06:14:03;102956.09;;;5.60;58.16
31044;BME280;17710;52.520;13.352;2023-02-10T06:16:30;102950.97;;;5.67;57.65
31044;BME280;17710;52.520;13.352;2023-02-10T06:18:56;102958.31;;;5.86;57.70
31044;BME280;17710;52.520;13.352;2023-02-10T06:21:23;102961.06;;;5.47;59.22
31044;BME280;17710;52.520;13.352;2023-02-10T06:23:49;102966.25;;;5.45;58.97
31044;BME280;17710;52.520;13.352;2023-02-10T06:26:15;102969.72;;;5.43;59.54
31044;BME280;17710;52.520;13.352;2023-02-10T06:28:44;102972.75;;;5.63;59.04
31044;BME280;17710;52.520;13.352;2023-02-10T06:31:10;102967.09;;;5.43;59.37
31044;BME280;17710;52.520;13.352;2023-02-10T06:33:37;102974.06;;;5.42;59.83
31044;BME280;17710;52.520;13.352;2023-02-10T06:36:04;102980.09;;;5.38;59.91
31044;BME280;17710;52.520;13.352;2023-02-10T06:38:36;102988.56;;;5.67;58.97
31044;BME280;17710;52.520;13.352;2023-02-10T06:41:03;102981.59;;;5.68;59.04
31044;BME280;17710;52.520;13.352;2023-02-10T06:43:30;102975.25;;;5.56;59.40
31044;BME280;17710;52.520;13.352;2023-02-10T06:45:59;102975.22;;;5.55;59.55
31044;BME280;17710;52.520;13.352;2023-02-10T06:48:25;102971.78;;;5.59;59.56
31044;BME280;17710;52.520;13.352;2023-02-10T06:50:53;102977.03;;;5.57;59.58
31044;BME280;17710;52.520;13.352;2023-02-10T06:53:19;102976.06;;;5.54;59.82
31044;BME280;17710;52.520;13.352;2023-02-10T06:55:46;102980.38;;;5.50;59.97
31044;BME280;17710;52.520;13.352;2023-02-10T06:58:12;102982.13;;;5.51;60.06
31044;BME280;17710;52.520;13.352;2023-02-10T07:00:39;102990.78;;;5.47;60.73
31044;BME280;17710;52.520;13.352;2023-02-10T07:03:07;102992.09;;;5.68;59.85
31044;BME280;17710;52.520;13.352;2023-02-10T07:05:33;103004.31;;;5.67;59.60
31044;BME280;17710;52.520;13.352;2023-02-10T07:08:00;103002.50;;;5.63;59.99
31044;BME280;17710;52.520;13.352;2023-02-10T07:10:29;102994.50;;;5.57;60.67
31044;BME280;17710;52.520;13.352;2023-02-10T07:12:55;102993.16;;;5.77;59.92
31044;BME280;17710;52.520;13.352;2023-02-10T07:15:22;102997.53;;;5.77;60.32
31044;BME280;17710;52.520;13.352;2023-02-10T07:17:49;103002.28;;;5.94;59.45
31044;BME280;17710;52.520;13.352;2023-02-10T07:20:18;102999.41;;;5.84;59.68
31044;BME280;17710;52.520;13.352;2023-02-10T07:22:44;103007.28;;;5.85;60.00
31044;BME280;17710;52.520;13.352;2023-02-10T07:25:11;103011.66;;;5.83;60.19
31044;BME280;17710;52.520;13.352;2023-02-10T07:27:38;103018.31;;;6.10;59.45
31044;BME280;17710;52.520;13.352;2023-02-10T07:30:05;103022.72;;;6.12;59.17
31044;BME280;17710;52.520;13.352;2023-02-10T07:32:32;103023.69;;;6.16;59.30
31044;BME280;17710;52.520;13.352;2023-02-10T07:34:58;103019.41;;;6.21;59.39
31044;BME280;17710;52.520;13.352;2023-02-10T07:37:26;103025.56;;;6.24;59.02
31044;BME280;17710;52.520;13.352;2023-02-10T07:39:54;103024.69;;;6.24;58.99
31044;BME280;17710;52.520;13.352;2023-02-10T07:42:20;103027.47;;;6.31;59.19
31044;BME280;17710;52.520;13.352;2023-02-10T07:44:47;103032.41;;;6.63;58.13
31044;BME280;17710;52.520;13.352;2023-02-10T07:47:13;103030.88;;;6.75;57.57
31044;BME280;17710;52.520;13.352;2023-02-10T07:49:49;103030.53;;;6.56;58.44
31044;BME280;17710;52.520;13.352;2023-02-10T07:52:16;103035.94;;;6.65;57.96
31044;BME280;17710;52.520;13.352;2023-02-10T07:54:44;103035.03;;;6.64;58.17
31044;BME280;17710;52.520;13.352;2023-02-10T07:57:11;103036.47;;;6.98;57.27
31044;BME280;17710;52.520;13.352;2023-02-10T07:59:37;103038.19;;;6.95;57.23
31044;BME280;17710;52.520;13.352;2023-02-10T08:02:04;103044.00;;;6.75;57.91
31044;BME280;17710;52.520;13.352;2023-02-10T08:04:30;103042.41;;;6.85;57.72
31044;BME280;17710;52.520;13.352;2023-02-10T08:06:57;103042.19;;;6.73;57.85
31044;BME280;17710;52.520;13.352;2023-02-10T08:09:26;103047.59;;;6.80;57.83
31044;BME280;17710;52.520;13.352;2023-02-10T08:11:54;103050.16;;;6.77;58.26
31044;BME280;17710;52.520;13.352;2023-02-10T08:14:21;103052.88;;;6.82;58.02
31044;BME280;17710;52.520;13.352;2023-02-10T08:16:47;103057.19;;;6.78;58.25
31044;BME280;17710;52.520;13.352;2023-02-10T08:19:14;103047.88;;;6.99;57.92
31044;BME280;17710;52.520;13.352;2023-02-10T08:21:40;103049.97;;;7.22;56.96
31044;BME280;17710;52.520;13.352;2023-02-10T08:24:08;103052.91;;;7.42;56.07
31044;BME280;17710;52.520;13.352;2023-02-10T08:26:34;103052.13;;;7.49;56.24
31044;BME280;17710;52.520;13.352;2023-02-10T08:29:02;103064.34;;;7.44;56.34
31044;BME280;17710;52.520;13.352;2023-02-10T08:31:29;103067.44;;;7.17;56.96
31044;BME280;17710;52.520;13.352;2023-02-10T08:33:55;103064.81;;;7.17;56.96
31044;BME280;17710;52.520;13.352;2023-02-10T08:36:22;103068.59;;;7.35;56.83
31044;BME280;17710;52.520;13.352;2023-02-10T08:38:49;103072.97;;;7.36;56.97
31044;BME280;17710;52.520;13.352;2023-02-10T08:41:17;103078.50;;;7.52;56.34
31044;BME280;17710;52.520;13.352;2023-02-10T08:43:44;103069.59;;;7.44;56.90
31044;BME280;17710;52.520;13.352;2023-02-10T08:46:12;103078.53;;;7.54;56.57
31044;BME280;17710;52.520;13.352;2023-02-10T08:48:39;103075.16;;;7.66;56.15
31044;BME280;17710;52.520;13.352;2023-02-10T08:51:07;103079.34;;;7.51;56.79
31044;BME280;17710;52.520;13.352;2023-02-10T08:53:34;103079.44;;;7.57;56.58
31044;BME280;17710;52.520;13.352;2023-02-10T08:56:03;103072.72;;;7.79;56.07
31044;BME280;17710;52.520;13.352;2023-02-10T08:58:30;103077.97;;;7.78;56.14
31044;BME280;17710;52.520;13.352;2023-02-10T09:00:57;103066.81;;;7.98;55.70
31044;BME280;17710;52.520;13.352;2023-02-10T09:03:26;103068.53;;;7.96;55.60
31044;BME280;17710;52.520;13.352;2023-02-10T09:05:53;103073.53;;;7.75;56.12
31044;BME280;17710;52.520;13.352;2023-02-10T09:08:20;103081.66;;;7.92;55.90
31044;BME280;17710;52.520;13.352;2023-02-10T09:10:47;103076.41;;;7.95;55.74
31044;BME280;17710;52.520;13.352;2023-02-10T09:13:14;103082.38;;;7.80;56.11
31044;BME280;17710;52.520;13.352;2023-02-10T09:15:41;103077.59;;;7.50;57.11
31044;BME280;17710;52.520;13.352;2023-02-10T09:18:09;103074.03;;;7.48;57.42
31044;BME280;17710;52.520;13.352;2023-02-10T09:20:37;103082.19;;;7.68;57.17
31044;BME280;17710;52.520;13.352;2023-02-10T09:23:04;103094.59;;;7.75;56.48
31044;BME280;17710;52.520;13.352;2023-02-10T09:25:31;103087.06;;;7.39;58.00
31044;BME280;17710;52.520;13.352;2023-02-10T09:27:57;103092.69;;;7.64;57.42
31044;BME280;17710;52.520;13.352;2023-02-10T09:30:24;103095.88;;;8.08;56.26
31044;BME280;17710;52.520;13.352;2023-02-10T09:32:51;103094.13;;;8.08;55.96
31044;BME280;17710;52.520;13.352;2023-02-10T09:35:17;103090.44;;;7.92;56.79
31044;BME280;17710;52.520;13.352;2023-02-10T09:37:45;103087.47;;;7.68;57.57
31044;BME280;17710;52.520;13.352;2023-02-10T09:40:16;103099.75;;;7.69;57.92
31044;BME280;17710;52.520;13.352;2023-02-10T09:42:55;103101.09;;;8.03;56.90
31044;BME280;17710;52.520;13.352;2023-02-10T09:45:31;103096.75;;;8.08;56.78
31044;BME280;17710;52.520;13.352;2023-02-10T09:48:00;103101.78;;;7.87;57.66
31044;BME280;17710;52.520;13.352;2023-02-10T09:50:42;103105.44;;;7.99;57.40
31044;BME280;17710;52.520;13.352;2023-02-10T09:53:16;103112.97;;;8.42;56.32
31044;BME280;17710;52.520;13.352;2023-02-10T09:55:47;103106.16;;;7.86;57.58
31044;BME280;17710;52.520;13.352;2023-02-10T09:58:26;103114.56;;;7.59;58.60
31044;BME280;17710;52.520;13.352;2023-02-10T10:00:58;103111.34;;;7.82;57.63
31044;BME280;17710;52.520;13.352;2023-02-10T10:03:34;103129.47;;;7.62;58.62
31044;BME280;17710;52.520;13.352;2023-02-10T10:06:10;103129.81;;;7.85;58.14
31044;BME280;17710;52.520;13.352;2023-02-10T10:08:45;103135.63;;;8.27;56.82
31044;BME280;17710;52.520;13.352;2023-02-10T10:11:22;103130.81;;;8.64;55.94
31044;BME280;17710;52.520;13.352;2023-02-10T10:13:49;103119.97;;;8.38;56.15
31044;BME280;17710;52.520;13.352;2023-02-10T10:16:21;103125.91;;;8.23;57.02
31044;BME280;17710;52.520;13.352;2023-02-10T10:19:01;103126.00;;;8.29;57.00
31044;BME280;17710;52.520;13.352;2023-02-10T10:21:34;103123.75;;;8.60;55.61
31044;BME280;17710;52.520;13.352;2023-02-10T10:24:16;103123.97;;;8.87;55.01
31044;BME280;17710;52.520;13.352;2023-02-10T10:26:58;103128.88;;;8.49;55.79
31044;BME280;17710;52.520;13.352;2023-02-10T10:29:39;103130.97;;;8.82;55.54
31044;BME280;17710;52.520;13.352;2023-02-10T10:32:14;103118.94;;;9.13;54.29
31044;BME280;17710;52.520;13.352;2023-02-10T10:34:51;103120.56;;;8.96;54.71
31044;BME280;17710;52.520;13.352;2023-02-10T10:37:19;103123.28;;;9.08;54.69
31044;BME280;17710;52.520;13.352;2023-02-10T10:39:50;103118.69;;;8.83;55.17
31044;BME280;17710;52.520;13.352;2023-02-10T10:42:22;103112.69;;;9.00;54.99
31044;BME280;17710;52.520;13.352;2023-02-10T10:44:54;103116.41;;;9.27;54.02
31044;BME280;17710;52.520;13.352;2023-02-10T10:47:33;103114.56;;;9.12;54.05
31044;BME280;17710;52.520;13.352;2023-02-10T10:50:00;103119.38;;;8.63;55.71
31044;BME280;17710;52.520;13.352;2023-02-10T10:52:31;103115.84;;;8.60;56.12
31044;BME280;17710;52.520;13.352;2023-02-10T10:55:01;103125.81;;;8.96;55.36
31044;BME280;17710;52.520;13.352;2023-02-10T10:57:28;103117.06;;;9.00;55.45
31044;BME280;17710;52.520;13.352;2023-02-10T11:00:04;103108.41;;;9.11;54.80
31044;BME280;17710;52.520;13.352;2023-02-10T11:02:32;103110.09;;;9.05;55.25
31044;BME280;17710;52.520;13.352;2023-02-10T11:05:00;103106.59;;;9.09;55.08
31044;BME280;17710;52.520;13.352;2023-02-10T11:07:28;103104.69;;;8.91;55.18
31044;BME280;17710;52.520;13.352;2023-02-10T11:09:59;103100.56;;;9.27;55.01
31044;BME280;17710;52.520;13.352;2023-02-10T11:12:29;103088.13;;;9.07;55.10
31044;BME280;17710;52.520;13.352;2023-02-10T11:14:58;103081.03;;;9.00;55.17
31044;BME280;17710;52.520;13.352;2023-02-10T11:17:30;103084.88;;;9.45;54.40
31044;BME280;17710;52.520;13.352;2023-02-10T11:20:00;103080.31;;;9.21;54.56
31044;BME280;17710;52.520;13.352;2023-02-10T11:22:29;103078.72;;;9.46;54.32
31044;BME280;17710;52.520;13.352;2023-02-10T11:24:57;103075.97;;;9.25;54.44
31044;BME280;17710;52.520;13.352;2023-02-10T11:27:26;103071.44;;;9.10;54.93
31044;BME280;17710;52.520;13.352;2023-02-10T11:29:54;103074.34;;;9.48;54.31
31044;BME280;17710;52.520;13.352;2023-02-10T11:32:23;103069.19;;;9.78;53.18
31044;BME280;17710;52.520;13.352;2023-02-10T11:34:53;103070.13;;;9.82;53.38
31044;BME280;17710;52.520;13.352;2023-02-10T11:37:23;103063.00;;;9.67;53.17
31044;BME280;17710;52.520;13.352;2023-02-10T11:39:51;103076.16;;;9.58;53.72
31044;BME280;17710;52.520;13.352;2023-02-10T11:42:21;103075.47;;;9.95;52.90
31044;BME280;17710;52.520;13.352;2023-02-10T11:44:55;103074.59;;;10.06;52.75
31044;BME280;17710;52.520;13.352;2023-02-10T11:47:23;103085.31;;;10.42;51.33
31044;BME280;17710;52.520;13.352;2023-02-10T11:49:50;103083.47;;;10.18;51.71
31044;BME280;17710;52.520;13.352;2023-02-10T11:52:17;103070.19;;;10.02;52.45
31044;BME280;17710;52.520;13.352;2023-02-10T11:54:46;103072.94;;;10.20;51.89
31044;BME280;17710;52.520;13.352;2023-02-10T11:57:29;103065.91;;;10.34;51.63
31044;BME280;17710;52.520;13.352;2023-02-10T12:00:23;103075.63;;;10.35;51.07
31044;BME280;17710;52.520;13.352;2023-02-10T12:03:24;103070.19;;;10.00;52.26
31044;BME280;17710;52.520;13.352;2023-02-10T12:05:55;103062.28;;;10.02;52.13
31044;BME280;17710;52.520;13.352;2023-02-10T12:08:28;103068.47;;;10.08;51.88
31044;BME280;17710;52.520;13.352;2023-02-10T12:11:02;103074.72;;;10.30;51.39
31044;BME280;17710;52.520;13.352;2023-02-10T12:13:40;103064.00;;;9.99;52.15
31044;BME280;17710;52.520;13.352;2023-02-10T12:16:18;103059.63;;;10.06;52.25
31044;BME280;17710;52.520;13.352;2023-02-10T12:19:01;103045.63;;;10.25;51.60
31044;BME280;17710;52.520;13.352;2023-02-10T12:22:02;103050.03;;;10.22;51.77
31044;BME280;17710;52.520;13.352;2023-02-10T12:24:57;103052.56;;;9.94;52.40
31044;BME280;17710;52.520;13.352;2023-02-10T12:27:34;103053.50;;;10.09;52.13
31044;BME280;17710;52.520;13.352;2023-02-10T12:30:09;103048.16;;;9.93;52.71
31044;BME280;17710;52.520;13.352;2023-02-10T12:32:49;103047.41;;;10.17;52.50
31044;BME280;17710;52.520;13.352;2023-02-10T12:35:27;103051.81;;;10.29;52.27
31044;BME280;17710;52.520;13.352;2023-02-10T12:38:03;103044.66;;;10.00;52.72
31044;BME280;17710;52.520;13.352;2023-02-10T12:40:52;103050.84;;;10.04;52.35
31044;BME280;17710;52.520;13.352;2023-02-10T12:43:38;103041.97;;;9.88;52.89
31044;BME280;17710;52.520;13.352;2023-02-10T12:46:14;103049.94;;;10.00;52.68
31044;BME280;17710;52.520;13.352;2023-02-10T12:48:50;103043.75;;;9.94;52.73
31044;BME280;17710;52.520;13.352;2023-02-10T12:51:29;103045.63;;;10.22;52.37
31044;BME280;17710;52.520;13.352;2023-02-10T12:54:02;103037.72;;;10.39;51.53
31044;BME280;17710;52.520;13.352;2023-02-10T12:56:33;103038.63;;;10.41;51.48
31044;BME280;17710;52.520;13.352;2023-02-10T12:59:08;103034.25;;;10.67;50.93
31044;BME280;17710;52.520;13.352;2023-02-10T13:01:40;103035.09;;;10.42;51.21